Time;durP1;ratioP1;P1;durP2;ratioP2;P2;SDS_P1;SDS_P2;PMS_P1;PMS_P2;Temp;Humidity;BMP_temperature;BMP_pressure;BME280_temperature;BME280_humidity;BME280_pressure;Samples;Min_cycle;Max_cycle;Signal;HPM_P1;HPM_P2
2023/08/26 00:01:32;;;;;;;6.53;5.20;;;;;;;18.19;100.00;99947.09;5960320;29;20510;-91
2023/08/26 00:04:35;;;;;;;8.80;6.57;;;;;;;18.34;100.00;99942.63;5950638;29;20058;-91
2023/08/26 00:07:37;;;;;;;9.82;6.25;;;;;;;18.36;100.00;99940.63;5939524;29;20481;-91
2023/08/26 00:10:38;;;;;;;9.45;6.63;;;;;;;18.40;100.00;99935.81;5958924;29;20138;-91
2023/08/26 00:13:40;;;;;;;8.93;7.40;;;;;;;18.46;100.00;99938.50;5950336;29;20047;-91
2023/08/26 00:16:42;;;;;;;12.93;8.80;;;;;;;18.42;100.00;99933.81;5960307;29;20080;-91
2023/08/26 00:19:44;;;;;;;15.30;9.75;;;;;;;18.37;100.00;99923.09;5960146;29;20099;-90
2023/08/26 00:22:47;;;;;;;20.42;13.70;;;;;;;18.43;100.00;99924.94;5952561;29;20054;-90
2023/08/26 00:25:48;;;;;;;21.55;13.63;;;;;;;18.47;100.00;99916.53;5960413;29;20042;-90
2023/08/26 00:28:50;;;;;;;20.67;12.95;;;;;;;18.61;100.00;99909.63;5960772;29;20126;-91
2023/08/26 00:31:51;;;;;;;19.33;14.02;;;;;;;18.59;100.00;99923.91;5962231;29;20051;-90
2023/08/26 00:34:53;;;;;;;20.77;14.27;;;;;;;18.63;100.00;99931.22;5959820;29;20519;-90
2023/08/26 00:37:55;;;;;;;23.70;15.32;;;;;;;18.69;100.00;99925.19;5960851;29;20148;-90
2023/08/26 00:40:57;;;;;;;27.63;14.68;;;;;;;18.79;100.00;99913.63;5959548;29;20046;-90
2023/08/26 00:43:59;;;;;;;21.83;14.45;;;;;;;18.90;100.00;99910.47;5958946;29;20047;-90
2023/08/26 00:47:01;;;;;;;20.15;13.77;;;;;;;18.97;100.00;99897.41;5950612;29;20097;-91
2023/08/26 00:50:05;;;;;;;23.08;15.57;;;;;;;18.98;100.00;99902.47;5952098;29;20616;-90
2023/08/26 00:53:07;;;;;;;23.83;15.77;;;;;;;19.00;100.00;99894.38;5949658;29;20489;-90
2023/08/26 00:56:09;;;;;;;23.00;15.55;;;;;;;18.99;100.00;99898.03;5958000;29;20059;-90
2023/08/26 00:59:11;;;;;;;25.25;17.00;;;;;;;18.91;100.00;99896.34;5959230;29;20050;-89
2023/08/26 01:02:13;;;;;;;27.63;17.67;;;;;;;18.95;100.00;99892.34;5958705;29;20624;-90
2023/08/26 01:05:16;;;;;;;25.55;17.17;;;;;;;19.02;100.00;99887.16;5955230;29;20086;-90
2023/08/26 01:08:18;;;;;;;27.52;18.50;;;;;;;18.93;100.00;99887.28;5952206;29;20085;-91
2023/08/26 01:11:47;;;;;;;27.52;19.80;;;;;;;18.92;100.00;99877.00;5964745;29;20057;-91
2023/08/26 01:15:05;;;;;;;29.73;19.80;;;;;;;18.92;100.00;99866.50;5947652;29;20055;-90
2023/08/26 01:18:10;;;;;;;27.83;20.45;;;;;;;18.90;100.00;99861.44;5949667;29;20050;-90
2023/08/26 01:21:14;;;;;;;27.95;20.50;;;;;;;18.92;100.00;99866.50;5957766;29;20116;-90
2023/08/26 01:24:16;;;;;;;29.88;20.73;;;;;;;18.92;100.00;99864.69;5958348;29;20053;-88
2023/08/26 01:27:18;;;;;;;28.52;20.27;;;;;;;19.03;100.00;99865.16;5960462;29;20058;-90
2023/08/26 01:30:22;;;;;;;34.15;20.83;;;;;;;19.00;100.00;99857.66;5961557;29;20047;-90
2023/08/26 01:33:29;;;;;;;28.90;20.40;;;;;;;18.96;100.00;99862.50;5958151;29;20066;-90
2023/08/26 01:36:37;;;;;;;29.42;19.25;;;;;;;18.93;100.00;99861.06;5965239;29;20506;-90
2023/08/26 01:39:41;;;;;;;30.25;20.17;;;;;;;18.75;100.00;99873.81;5959366;29;20060;-90
2023/08/26 01:42:44;;;;;;;28.90;19.50;;;;;;;18.84;100.00;99882.38;5959103;29;20051;-91
2023/08/26 01:45:46;;;;;;;30.98;20.10;;;;;;;18.73;100.00;99875.81;5957423;29;20050;-90
2023/08/26 01:48:48;;;;;;;26.77;19.55;;;;;;;18.73;100.00;99873.19;5958728;29;20535;-90
2023/08/26 01:51:49;;;;;;;27.60;19.58;;;;;;;18.83;100.00;99868.47;5972469;29;20597;-91
2023/08/26 01:54:51;;;;;;;25.90;19.02;;;;;;;18.82;100.00;99863.41;5959203;29;20508;-91
2023/08/26 01:57:53;;;;;;;28.00;19.38;;;;;;;18.75;100.00;99865.13;5931663;29;20062;-92
2023/08/26 02:00:55;;;;;;;29.08;19.67;;;;;;;18.71;100.00;99868.16;5959055;29;20554;-92
2023/08/26 02:03:57;;;;;;;28.92;19.77;;;;;;;18.80;100.00;99868.03;5957785;29;20760;-93
2023/08/26 02:06:59;;;;;;;32.00;20.00;;;;;;;18.75;100.00;99865.94;5957417;29;20104;-91
2023/08/26 02:10:01;;;;;;;29.92;20.20;;;;;;;18.69;100.00;99859.66;5947343;29;20050;-91
2023/08/26 02:13:06;;;;;;;30.88;19.88;;;;;;;18.71;100.00;99859.47;5967510;29;20047;-92
2023/08/26 02:16:08;;;;;;;29.17;19.38;;;;;;;18.64;100.00;99874.34;5957722;29;20090;-92
2023/08/26 02:19:10;;;;;;;28.38;19.50;;;;;;;18.65;100.00;99868.88;5971906;29;20069;-92
2023/08/26 02:22:12;;;;;;;28.58;19.88;;;;;;;18.65;100.00;99866.28;5945725;29;20107;-91
2023/08/26 02:25:14;;;;;;;29.95;21.00;;;;;;;18.57;100.00;99865.63;5945638;29;20050;-91
2023/08/26 02:28:16;;;;;;;28.45;20.58;;;;;;;18.57;100.00;99870.84;5960426;29;20108;-94
2023/08/26 02:31:19;;;;;;;27.95;20.65;;;;;;;18.61;100.00;99874.72;5955276;29;20047;-92
2023/08/26 02:34:20;;;;;;;26.90;19.38;;;;;;;18.54;100.00;99873.84;5956893;29;20059;-92
2023/08/26 02:37:22;;;;;;;34.55;20.58;;;;;;;18.50;100.00;99868.97;5957271;29;20051;-91
2023/08/26 02:40:24;;;;;;;30.67;21.45;;;;;;;18.61;100.00;99875.53;5965183;29;20291;-93
2023/08/26 02:43:26;;;;;;;31.65;21.98;;;;;;;18.70;100.00;99873.56;5974299;29;20055;-93
2023/08/26 02:46:28;;;;;;;33.33;23.00;;;;;;;18.80;100.00;99873.28;5964629;29;20078;-92
2023/08/26 02:49:32;;;;;;;34.45;24.15;;;;;;;18.91;100.00;99870.94;5959126;29;20054;-92
2023/08/26 02:52:34;;;;;;;36.60;23.23;;;;;;;18.96;100.00;99874.81;5940639;29;20043;-92
2023/08/26 02:55:37;;;;;;;35.05;24.00;;;;;;;18.90;100.00;99878.97;5972879;29;20058;-91
2023/08/26 02:58:39;;;;;;;41.75;26.05;;;;;;;18.89;100.00;99883.44;5956505;29;20066;-90
2023/08/26 03:01:41;;;;;;;34.20;25.20;;;;;;;18.83;100.00;99884.22;5957644;29;20284;-91
2023/08/26 03:04:43;;;;;;;35.92;24.70;;;;;;;18.77;100.00;99886.78;5955092;29;20050;-94
2023/08/26 03:07:45;;;;;;;39.80;25.42;;;;;;;18.76;100.00;99885.13;5961909;29;20051;-92
2023/08/26 03:11:12;;;;;;;40.20;24.83;;;;;;;18.69;100.00;99888.50;5953049;29;20053;-92
2023/08/26 03:14:17;;;;;;;36.22;24.15;;;;;;;18.63;100.00;99889.25;5958703;29;20055;-92
2023/08/26 03:17:18;;;;;;;38.25;24.15;;;;;;;18.60;100.00;99892.25;5947893;29;20546;-93
2023/08/26 03:20:20;;;;;;;38.40;25.30;;;;;;;18.64;100.00;99893.50;5953997;29;20043;-92
2023/08/26 03:23:22;;;;;;;38.65;25.35;;;;;;;18.66;100.00;99904.59;5956234;29;20059;-92
2023/08/26 03:26:24;;;;;;;40.55;25.58;;;;;;;18.67;100.00;99902.78;5956388;29;20142;-91
2023/08/26 03:29:26;;;;;;;37.50;25.83;;;;;;;18.79;100.00;99911.00;5964781;29;20047;-91
2023/08/26 03:32:28;;;;;;;37.47;25.13;;;;;;;18.77;100.00;99902.50;5963361;29;20050;-91
2023/08/26 03:35:32;;;;;;;33.67;24.77;;;;;;;18.68;100.00;99914.88;5975424;29;20055;-91
2023/08/26 03:38:34;;;;;;;39.63;24.80;;;;;;;18.61;100.00;99925.34;5948171;29;20055;-91
2023/08/26 03:41:36;;;;;;;36.15;25.10;;;;;;;18.66;100.00;99911.66;5975476;29;20054;-91
2023/08/26 03:44:38;;;;;;;35.08;24.27;;;;;;;18.66;100.00;99909.84;5958370;29;20046;-91
2023/08/26 03:47:40;;;;;;;36.30;23.17;;;;;;;18.60;100.00;99910.59;5955111;29;20055;-91
2023/08/26 03:50:50;;;;;;;34.38;22.75;;;;;;;18.56;100.00;99900.66;5961840;29;20088;-91
2023/08/26 03:53:52;;;;;;;35.97;22.67;;;;;;;18.54;100.00;99900.88;5953849;29;20063;-91
2023/08/26 03:56:54;;;;;;;35.58;23.27;;;;;;;18.50;100.00;99897.00;5975117;29;20053;-91
2023/08/26 03:59:57;;;;;;;34.30;22.77;;;;;;;18.43;100.00;99904.00;5960020;29;20498;-91
2023/08/26 04:02:59;;;;;;;31.30;20.65;;;;;;;18.35;100.00;99911.97;5964886;29;20136;-96
2023/08/26 04:06:04;;;;;;;33.85;21.63;;;;;;;18.36;100.00;99910.97;5965389;29;20418;-96
2023/08/26 04:09:07;;;;;;;29.33;20.55;;;;;;;18.36;100.00;99916.22;5968995;29;20046;-90
2023/08/26 04:12:08;;;;;;;28.20;21.42;;;;;;;18.32;100.00;99921.03;5962263;29;20080;-91
2023/08/26 04:15:10;;;;;;;28.23;19.75;;;;;;;18.22;100.00;99928.38;5963981;29;20127;-93
2023/08/26 04:18:13;;;;;;;29.23;19.23;;;;;;;18.17;100.00;99928.94;5956196;29;20055;-91
2023/08/26 04:21:15;;;;;;;30.00;20.35;;;;;;;18.11;100.00;99932.31;5961867;29;20105;-91
2023/08/26 04:24:17;;;;;;;29.80;20.02;;;;;;;18.01;100.00;99942.25;5965161;29;20518;-92
2023/08/26 04:27:19;;;;;;;27.70;19.15;;;;;;;17.99;100.00;99931.97;5959963;29;20047;-90
2023/08/26 04:30:21;;;;;;;30.38;18.45;;;;;;;18.07;100.00;99937.09;5963071;29;20781;-91
2023/08/26 04:33:23;;;;;;;28.60;17.67;;;;;;;18.08;100.00;99937.91;5955398;29;20054;-91
2023/08/26 04:36:25;;;;;;;27.10;18.67;;;;;;;18.02;100.00;99949.13;5960463;29;20078;-92
2023/08/26 04:39:27;;;;;;;26.80;17.73;;;;;;;18.02;100.00;99951.75;5973705;29;20055;-91
2023/08/26 04:42:29;;;;;;;27.67;18.17;;;;;;;18.18;100.00;99951.50;5940604;29;20051;-91
2023/08/26 04:45:31;;;;;;;25.77;18.25;;;;;;;18.27;100.00;99947.78;5973238;29;20513;-91
2023/08/26 04:48:33;;;;;;;24.02;17.27;;;;;;;18.28;100.00;99952.03;5978771;29;20628;-91
2023/08/26 04:51:38;;;;;;;24.40;16.35;;;;;;;18.19;100.00;99961.00;5948932;29;20745;-91
2023/08/26 04:54:40;;;;;;;24.45;17.23;;;;;;;18.24;100.00;99965.69;5971968;29;20462;-92
2023/08/26 04:57:43;;;;;;;24.85;16.95;;;;;;;18.33;100.00;99966.38;5958618;29;20095;-96
2023/08/26 05:00:45;;;;;;;24.40;17.67;;;;;;;18.47;100.00;99955.03;5973200;29;20408;-91
2023/08/26 05:03:47;;;;;;;25.83;16.80;;;;;;;18.56;100.00;99955.72;5958536;29;20046;-92
2023/08/26 05:06:50;;;;;;;23.80;16.52;;;;;;;18.60;100.00;99949.91;5962660;29;20227;-92
2023/08/26 05:09:51;;;;;;;23.05;16.08;;;;;;;18.68;100.00;99946.34;5977957;29;20081;-92
2023/08/26 05:12:53;;;;;;;23.25;15.90;;;;;;;18.73;100.00;99950.06;5950229;29;20047;-93
2023/08/26 05:15:55;;;;;;;23.40;14.55;;;;;;;18.78;100.00;99961.78;5963614;29;20503;-92
2023/08/26 05:18:57;;;;;;;24.33;15.43;;;;;;;18.86;100.00;99956.44;5957746;29;20076;-91
2023/08/26 05:22:01;;;;;;;20.38;14.10;;;;;;;18.97;100.00;99955.09;5958521;29;20073;-94
2023/08/26 05:25:05;;;;;;;22.65;13.88;;;;;;;18.96;100.00;99954.31;5959362;29;20149;-92
2023/08/26 05:28:07;;;;;;;21.05;14.40;;;;;;;19.04;100.00;99953.34;5944433;29;20103;-92
2023/08/26 05:31:09;;;;;;;21.17;14.27;;;;;;;19.07;100.00;99952.97;5957597;29;20092;-92
2023/08/26 05:34:11;;;;;;;20.00;13.13;;;;;;;19.13;100.00;99958.25;5959709;29;20080;-93
2023/08/26 05:37:13;;;;;;;17.88;12.88;;;;;;;19.20;100.00;99958.28;5958179;29;20506;-93
2023/08/26 05:40:15;;;;;;;20.85;13.20;;;;;;;19.25;100.00;99969.03;5959586;29;20085;-92
2023/08/26 05:43:17;;;;;;;16.83;12.85;;;;;;;19.22;100.00;99973.84;5957743;29;20080;-93
2023/08/26 05:46:21;;;;;;;21.67;13.82;;;;;;;19.25;100.00;99957.72;5948727;29;20054;-93
2023/08/26 05:49:24;;;;;;;21.17;12.85;;;;;;;19.26;100.00;99967.22;5964579;29;20054;-95
2023/08/26 05:52:26;;;;;;;19.10;13.30;;;;;;;19.33;100.00;99976.78;5955160;29;20524;-94
2023/08/26 05:55:28;;;;;;;19.02;13.13;;;;;;;19.34;100.00;99977.56;5943311;29;20069;-94
2023/08/26 05:58:30;;;;;;;20.05;13.65;;;;;;;19.34;100.00;99978.38;5955716;29;20422;-95
2023/08/26 06:01:33;;;;;;;21.52;14.55;;;;;;;19.34;100.00;99970.50;5958975;29;20517;-93
2023/08/26 06:04:35;;;;;;;19.88;15.10;;;;;;;19.44;100.00;99979.84;5955058;29;20057;-93
2023/08/26 06:07:37;;;;;;;19.50;13.88;;;;;;;19.54;100.00;99975.88;5958670;29;20086;-93
2023/08/26 06:10:39;;;;;;;19.85;14.50;;;;;;;19.76;100.00;99967.94;5949591;29;20208;-92
2023/08/26 06:13:42;;;;;;;18.75;14.25;;;;;;;20.03;100.00;99973.31;5960830;29;20101;-92
2023/08/26 06:16:47;;;;;;;17.98;13.38;;;;;;;20.21;100.00;99970.94;5954279;29;20112;-94
2023/08/26 06:19:50;;;;;;;19.95;13.93;;;;;;;20.09;100.00;99965.44;5957493;29;20051;-93
2023/08/26 06:22:52;;;;;;;18.63;13.55;;;;;;;19.95;100.00;99969.84;5971665;29;20050;-92
2023/08/26 06:25:56;;;;;;;21.70;13.63;;;;;;;19.69;100.00;99972.34;5980500;29;20247;-94
2023/08/26 06:28:59;;;;;;;20.08;14.32;;;;;;;19.52;100.00;99987.56;5957719;29;20095;-92
2023/08/26 06:32:04;;;;;;;19.23;14.45;;;;;;;19.63;100.00;99999.38;5957950;29;20049;-92
2023/08/26 06:35:10;;;;;;;18.35;13.30;;;;;;;19.64;100.00;100008.84;5940279;29;20130;-92
2023/08/26 06:38:13;;;;;;;19.73;13.50;;;;;;;19.71;100.00;100009.75;5959563;29;20387;-92
2023/08/26 06:41:16;;;;;;;19.45;13.20;;;;;;;20.01;100.00;100011.09;5956261;29;20080;-92
2023/08/26 06:44:17;;;;;;;19.30;12.75;;;;;;;20.10;100.00;100003.03;5955825;29;20058;-92
2023/08/26 06:47:23;;;;;;;16.35;12.98;;;;;;;20.00;100.00;100030.50;5971364;29;20047;-92
2023/08/26 06:50:26;;;;;;;6.68;2.92;;;;;;;19.45;100.00;100050.56;5957010;29;20095;-93
2023/08/26 06:53:28;;;;;;;3.60;2.05;;;;;;;19.18;100.00;100046.06;5966220;29;20051;-91
2023/08/26 06:56:30;;;;;;;3.80;2.25;;;;;;;18.92;100.00;100050.91;5941206;29;20097;-92
2023/08/26 06:59:32;;;;;;;4.22;2.10;;;;;;;18.78;100.00;100061.44;5956743;29;20540;-93
2023/08/26 07:02:34;;;;;;;3.47;1.73;;;;;;;18.60;100.00;100053.97;5957551;29;20047;-92
2023/08/26 07:05:38;;;;;;;3.60;1.77;;;;;;;18.43;100.00;100061.22;5961697;29;20234;-93
2023/08/26 07:08:40;;;;;;;2.92;1.95;;;;;;;18.24;100.00;100057.41;5966223;29;20069;-93
2023/08/26 07:11:42;;;;;;;3.95;1.63;;;;;;;18.14;100.00;100062.91;5961371;29;20083;-93
2023/08/26 07:14:44;;;;;;;2.95;1.40;;;;;;;18.12;100.00;100054.41;5962383;29;20091;-91
2023/08/26 07:17:45;;;;;;;1.80;1.15;;;;;;;18.16;100.00;100049.63;5960542;29;20566;-91
2023/08/26 07:20:48;;;;;;;5.13;1.30;;;;;;;18.03;100.00;100045.81;5966517;29;20139;-92
2023/08/26 07:23:50;;;;;;;3.38;1.20;;;;;;;17.93;100.00;100034.81;5971256;29;20047;-92
2023/08/26 07:26:53;;;;;;;4.60;1.63;;;;;;;17.83;100.00;100040.31;5957893;29;20043;-93
2023/08/26 07:29:55;;;;;;;2.05;1.20;;;;;;;17.73;100.00;100038.94;5959757;29;20517;-91
2023/08/26 07:32:57;;;;;;;4.07;1.48;;;;;;;17.62;100.00;100034.97;5981208;29;20058;-92
2023/08/26 07:36:07;;;;;;;2.15;1.20;;;;;;;17.53;100.00;100029.00;5964459;29;20415;-93
2023/08/26 07:39:08;;;;;;;1.80;1.00;;;;;;;17.45;100.00;100029.06;5960686;29;20180;-93
2023/08/26 07:42:10;;;;;;;3.28;1.15;;;;;;;17.44;100.00;100030.09;5971740;29;20057;-91
2023/08/26 07:45:12;;;;;;;3.45;1.40;;;;;;;17.36;100.00;100032.75;5962203;29;20047;-92
2023/08/26 07:48:15;;;;;;;6.10;1.10;;;;;;;17.31;100.00;100022.81;5959582;29;20060;-93
2023/08/26 07:51:20;;;;;;;1.52;0.80;;;;;;;17.32;100.00;100037.53;5951052;29;20565;-92
2023/08/26 07:54:22;;;;;;;2.30;0.90;;;;;;;17.36;100.00;100036.19;5960654;29;20094;-91
2023/08/26 07:57:24;;;;;;;2.30;0.82;;;;;;;17.36;100.00;100048.44;5961343;29;20058;-92
2023/08/26 08:00:27;;;;;;;2.75;1.15;;;;;;;17.37;100.00;100042.25;5957108;29;20079;-94
2023/08/26 08:03:29;;;;;;;3.25;1.13;;;;;;;17.38;100.00;100055.13;5960089;29;20106;-93
2023/08/26 08:06:31;;;;;;;2.65;1.10;;;;;;;17.38;100.00;100056.94;5969330;29;20045;-91
2023/08/26 08:09:33;;;;;;;4.13;1.10;;;;;;;17.49;100.00;100058.31;5961065;29;20319;-92
2023/08/26 08:12:35;;;;;;;4.38;1.08;;;;;;;17.49;100.00;100063.53;5961374;29;20115;-92
2023/08/26 08:15:37;;;;;;;3.83;1.10;;;;;;;17.44;100.00;100083.22;5958917;29;20430;-92
2023/08/26 08:18:39;;;;;;;4.22;1.10;;;;;;;17.43;100.00;100081.56;5945718;29;20050;-93
2023/08/26 08:21:41;;;;;;;4.65;0.90;;;;;;;17.42;100.00;100094.84;5949586;29;20050;-92
2023/08/26 08:24:43;;;;;;;1.80;1.02;;;;;;;17.48;100.00;100098.56;5958456;29;20100;-89
2023/08/26 08:27:45;;;;;;;5.15;1.40;;;;;;;17.51;100.00;100104.25;5953469;29;20051;-91
2023/08/26 08:30:47;;;;;;;2.67;0.88;;;;;;;17.61;100.00;100114.47;5954220;29;20060;-91
2023/08/26 08:33:52;;;;;;;2.10;1.00;;;;;;;17.69;100.00;100111.78;5964417;29;20050;-93
2023/08/26 08:36:54;;;;;;;2.88;0.90;;;;;;;17.66;100.00;100119.97;5952846;29;20078;-94
2023/08/26 08:39:56;;;;;;;3.08;1.30;;;;;;;17.78;100.00;100121.19;5956151;29;20078;-91
2023/08/26 08:43:02;;;;;;;2.70;0.90;;;;;;;17.90;100.00;100118.16;5952486;29;20528;-94
2023/08/26 08:46:04;;;;;;;3.78;1.10;;;;;;;18.05;100.00;100117.19;5958883;29;20051;-94
2023/08/26 08:49:07;;;;;;;2.35;1.17;;;;;;;18.12;100.00;100116.47;5966019;29;20051;-92
2023/08/26 08:52:10;;;;;;;1.63;0.80;;;;;;;18.21;100.00;100121.44;5957750;29;20043;-92
2023/08/26 08:55:12;;;;;;;3.05;1.30;;;;;;;18.19;100.00;100112.16;5964506;29;20395;-92
2023/08/26 08:58:15;;;;;;;5.15;1.42;;;;;;;18.24;100.00;100121.06;5956368;29;20075;-92
2023/08/26 09:01:23;;;;;;;3.30;1.30;;;;;;;18.33;100.00;100131.47;5968633;29;20066;-95
2023/08/26 09:04:26;;;;;;;1.60;1.02;;;;;;;18.21;100.00;100131.94;5960206;29;20054;-90
2023/08/26 09:07:28;;;;;;;3.50;1.20;;;;;;;18.15;100.00;100131.81;5951446;29;20991;-94
2023/08/26 09:10:31;;;;;;;2.00;0.98;;;;;;;18.06;100.00;100137.16;5958692;29;20046;-92
2023/08/26 09:13:34;;;;;;;4.88;1.23;;;;;;;17.96;100.00;100144.47;5949697;29;20054;-92
2023/08/26 09:16:37;;;;;;;1.80;0.98;;;;;;;17.98;100.00;100133.78;5942579;29;20042;-92
2023/08/26 09:19:53;;;;;;;2.95;0.80;;;;;;;17.92;100.00;100130.09;5950344;29;20058;-93
2023/08/26 09:23:12;;;;;;;2.60;1.02;;;;;;;18.05;100.00;100138.13;5944441;29;20566;-92
2023/08/26 09:26:16;;;;;;;2.15;1.20;;;;;;;18.26;100.00;100144.47;5949890;29;20054;-93
2023/08/26 09:29:21;;;;;;;1.88;1.25;;;;;;;18.35;100.00;100148.63;5955287;29;20558;-92
2023/08/26 09:32:37;;;;;;;3.35;1.20;;;;;;;18.43;100.00;100145.94;5960681;29;20095;-93
2023/08/26 09:35:48;;;;;;;4.70;1.15;;;;;;;18.46;100.00;100156.03;5951174;29;20047;-90
2023/08/26 09:38:53;;;;;;;1.35;1.00;;;;;;;18.45;100.00;100158.84;5946931;29;20086;-93
2023/08/26 09:41:56;;;;;;;2.30;1.08;;;;;;;18.48;100.00;100156.69;5942766;29;20077;-91
2023/08/26 09:44:58;;;;;;;1.55;1.00;;;;;;;18.66;100.00;100156.28;5940474;29;20055;-92
2023/08/26 09:48:00;;;;;;;2.95;1.10;;;;;;;19.06;100.00;100154.16;5941123;29;20098;-91
2023/08/26 09:51:08;;;;;;;1.48;1.00;;;;;;;19.13;100.00;100162.91;5957103;29;20039;-92
2023/08/26 09:54:11;;;;;;;1.02;0.80;;;;;;;18.91;100.00;100164.69;5954185;29;20047;-94
2023/08/26 09:57:13;;;;;;;4.07;0.95;;;;;;;18.86;100.00;100172.31;5949729;29;20050;-91
2023/08/26 10:00:17;;;;;;;3.22;1.10;;;;;;;18.78;100.00;100175.03;5951196;29;20051;-94
2023/08/26 10:03:23;;;;;;;1.98;1.00;;;;;;;18.99;100.00;100166.38;5948470;29;20051;-92
2023/08/26 10:06:29;;;;;;;3.60;1.00;;;;;;;19.08;100.00;100175.78;5956207;29;20324;-93
2023/08/26 10:09:39;;;;;;;2.00;1.27;;;;;;;19.04;100.00;100178.94;5944936;29;20054;-92
2023/08/26 10:12:43;;;;;;;2.95;1.10;;;;;;;19.07;100.00;100182.00;5943094;29;20082;-91
2023/08/26 10:15:50;;;;;;;1.92;1.10;;;;;;;19.41;100.00;100182.38;5973838;29;20051;-91
2023/08/26 10:18:56;;;;;;;2.95;1.30;;;;;;;19.82;100.00;100179.09;5951151;29;20045;-91
2023/08/26 10:22:00;;;;;;;2.40;1.10;;;;;;;20.01;100.00;100176.63;5943229;29;20510;-91
2023/08/26 10:25:03;;;;;;;2.92;1.40;;;;;;;20.58;100.00;100179.22;5943751;29;20954;-92
2023/08/26 10:28:06;;;;;;;3.50;1.30;;;;;;;21.07;100.00;100173.72;5967794;29;20133;-92
2023/08/26 10:31:09;;;;;;;4.05;1.20;;;;;;;21.34;100.00;100180.88;5956121;29;20048;-92
2023/08/26 10:34:10;;;;;;;2.08;1.48;;;;;;;21.54;100.00;100183.56;5942544;29;20072;-91
2023/08/26 10:37:12;;;;;;;2.45;1.10;;;;;;;21.45;100.00;100181.13;5953394;29;20051;-93
2023/08/26 10:40:14;;;;;;;4.30;1.00;;;;;;;21.18;100.00;100188.13;5945602;29;20051;-91
2023/08/26 10:43:17;;;;;;;4.03;1.60;;;;;;;20.90;100.00;100195.34;5958351;29;20526;-90
2023/08/26 10:47:02;;;;;;;2.45;1.20;;;;;;;20.58;100.00;100177.41;5953840;29;20051;-91
2023/08/26 10:50:23;;;;;;;2.45;1.25;;;;;;;20.47;100.00;100177.09;5906243;30;20063;-90
2023/08/26 10:53:25;;;;;;;1.98;0.95;;;;;;;20.51;100.00;100179.16;5901628;30;20059;-92
2023/08/26 10:56:28;;;;;;;2.25;1.20;;;;;;;20.40;100.00;100185.78;5908982;30;20490;-92
2023/08/26 10:59:40;;;;;;;2.88;1.08;;;;;;;20.42;100.00;100173.25;5897530;30;20064;-92
2023/08/26 11:02:42;;;;;;;3.47;1.25;;;;;;;20.61;100.00;100177.00;5908055;30;20518;-91
2023/08/26 11:05:46;;;;;;;3.50;1.50;;;;;;;20.74;100.00;100168.34;5902055;30;20595;-91
2023/08/26 11:08:56;;;;;;;2.00;0.93;;;;;;;20.80;100.00;100164.94;5916535;30;20056;-91
2023/08/26 11:11:57;;;;;;;2.28;1.30;;;;;;;20.89;100.00;100159.50;5906510;30;20059;-90
2023/08/26 11:15:06;;;;;;;3.38;0.90;;;;;;;21.02;100.00;100173.53;5913749;30;20170;-91
2023/08/26 11:18:10;;;;;;;5.45;1.45;;;;;;;21.29;100.00;100173.56;5914584;30;20590;-90
2023/08/26 11:21:12;;;;;;;2.83;1.50;;;;;;;21.35;100.00;100171.97;5893500;30;20579;-90
2023/08/26 11:24:14;;;;;;;3.42;1.20;;;;;;;21.54;100.00;100173.84;5895625;29;20448;-90
2023/08/26 11:27:16;;;;;;;2.22;1.10;;;;;;;21.73;100.00;100170.38;5947366;29;20718;-90
2023/08/26 11:30:18;;;;;;;1.75;1.10;;;;;;;21.79;100.00;100173.22;5955262;29;20062;-91
2023/08/26 11:33:23;;;;;;;1.80;0.98;;;;;;;21.89;100.00;100173.66;5957607;29;20062;-90
2023/08/26 11:36:26;;;;;;;2.15;1.10;;;;;;;21.98;100.00;100176.88;5954683;29;20072;-89
2023/08/26 11:39:34;;;;;;;2.42;1.00;;;;;;;22.33;100.00;100173.00;5957462;29;20095;-89
2023/08/26 11:42:37;;;;;;;1.40;1.00;;;;;;;22.83;100.00;100182.97;5993283;29;20058;-91
2023/08/26 11:45:41;;;;;;;2.88;1.13;;;;;;;22.99;100.00;100176.41;5956020;29;20055;-90
2023/08/26 11:48:44;;;;;;;3.22;1.10;;;;;;;23.01;100.00;100177.00;5961541;29;20058;-90
2023/08/26 11:51:45;;;;;;;4.18;1.30;;;;;;;22.88;100.00;100177.03;5962561;29;20067;-90
2023/08/26 11:54:51;;;;;;;4.07;1.80;;;;;;;22.76;100.00;100169.78;5961160;29;20486;-90
2023/08/26 11:57:53;;;;;;;1.77;1.10;;;;;;;22.95;100.00;100167.25;5957696;29;20050;-90
2023/08/26 12:00:56;;;;;;;2.10;1.05;;;;;;;23.20;100.00;100172.63;5945918;29;20047;-89
2023/08/26 12:03:58;;;;;;;3.35;1.08;;;;;;;23.16;100.00;100161.69;5960148;29;20155;-89
2023/08/26 12:07:08;;;;;;;2.72;1.35;;;;;;;23.15;100.00;100172.44;5951260;29;20104;-89
2023/08/26 12:10:11;;;;;;;3.00;1.08;;;;;;;23.38;100.00;100167.44;5961487;29;20047;-89
2023/08/26 12:13:13;;;;;;;3.58;1.10;;;;;;;23.41;100.00;100176.75;5952717;29;20043;-90
2023/08/26 12:16:16;;;;;;;2.47;1.10;;;;;;;22.96;100.00;100167.06;5961163;29;20052;-89
2023/08/26 12:19:19;;;;;;;2.63;1.33;;;;;;;22.98;100.00;100174.78;5960367;29;20059;-89
2023/08/26 12:22:21;;;;;;;2.65;1.08;;;;;;;23.12;100.00;100178.16;5961171;29;20506;-91
2023/08/26 12:25:32;;;;;;;1.90;1.27;;;;;;;22.73;100.00;100179.94;5961247;29;20051;-89
2023/08/26 12:28:40;;;;;;;1.48;0.90;;;;;;;22.31;100.00;100169.75;5961007;29;20072;-89
2023/08/26 12:31:43;;;;;;;2.60;1.02;;;;;;;22.50;100.00;100181.25;5959287;29;20039;-89
2023/08/26 12:34:45;;;;;;;2.72;1.35;;;;;;;22.80;100.00;100189.44;5960352;29;20055;-89
2023/08/26 12:37:47;;;;;;;4.70;1.58;;;;;;;22.89;100.00;100182.09;5957407;29;20054;-89
2023/08/26 12:40:49;;;;;;;2.13;1.17;;;;;;;23.28;100.00;100182.94;5956905;29;20054;-89
2023/08/26 12:43:55;;;;;;;2.83;1.02;;;;;;;23.76;100.00;100168.38;5953552;29;20553;-89
2023/08/26 12:46:57;;;;;;;2.42;1.23;;;;;;;24.06;100.00;100164.03;5971981;29;20057;-88
2023/08/26 12:49:59;;;;;;;3.35;1.17;;;;;;;23.99;98.67;100158.00;5960524;29;20050;-89
2023/08/26 12:53:02;;;;;;;2.65;1.25;;;;;;;24.01;100.00;100165.72;5950014;29;20073;-89
2023/08/26 12:56:04;;;;;;;2.28;1.13;;;;;;;24.05;100.00;100178.28;5965763;29;20047;-89
2023/08/26 12:59:10;;;;;;;6.18;1.40;;;;;;;23.69;99.79;100178.97;5962764;29;20051;-91
2023/08/26 13:02:12;;;;;;;2.80;1.20;;;;;;;23.62;100.00;100186.16;5961871;29;20046;-88
2023/08/26 13:05:13;;;;;;;2.08;1.20;;;;;;;24.08;93.10;100171.75;5961445;29;20145;-89
2023/08/26 13:08:15;;;;;;;2.55;1.30;;;;;;;24.32;95.44;100174.53;5959664;29;20042;-88
2023/08/26 13:11:17;;;;;;;5.82;1.48;;;;;;;24.37;86.09;100180.81;5959408;29;20071;-87
2023/08/26 13:14:19;;;;;;;2.17;0.95;;;;;;;24.04;89.99;100176.66;5968606;29;20046;-89
2023/08/26 13:17:21;;;;;;;2.22;0.90;;;;;;;23.99;91.92;100178.34;5958837;29;20047;-90
2023/08/26 13:20:25;;;;;;;1.05;0.95;;;;;;;24.17;94.59;100191.56;5959088;29;20510;-89
2023/08/26 13:23:27;;;;;;;1.77;1.25;;;;;;;24.22;89.62;100183.81;5960236;29;20043;-89
2023/08/26 13:26:29;;;;;;;4.20;1.20;;;;;;;24.41;89.07;100175.88;5958913;29;20038;-90
2023/08/26 13:29:31;;;;;;;4.00;1.33;;;;;;;24.17;88.77;100180.19;5963566;29;20035;-90
2023/08/26 13:32:33;;;;;;;2.22;1.10;;;;;;;24.06;90.59;100179.09;5961191;29;20422;-90
2023/08/26 13:35:34;;;;;;;2.40;1.35;;;;;;;24.62;93.15;100179.94;5959968;29;20065;-89
2023/08/26 13:38:36;;;;;;;3.72;1.30;;;;;;;25.19;89.61;100191.03;5955627;29;20057;-88
2023/08/26 13:41:38;;;;;;;3.17;1.15;;;;;;;25.43;80.28;100175.19;5963819;29;20418;-89
2023/08/26 13:44:40;;;;;;;2.70;1.20;;;;;;;25.35;78.50;100182.44;5955012;29;20051;-89
2023/08/26 13:47:42;;;;;;;2.00;1.00;;;;;;;25.58;84.98;100192.25;5958352;29;20046;-89
2023/08/26 13:50:44;;;;;;;2.65;1.20;;;;;;;25.81;81.96;100181.91;5966966;29;20047;-89
2023/08/26 13:53:46;;;;;;;2.08;1.10;;;;;;;25.69;76.51;100185.38;5975872;29;20053;-89
2023/08/26 13:56:50;;;;;;;3.33;1.20;;;;;;;25.82;84.72;100200.25;5963657;29;20050;-89
2023/08/26 13:59:51;;;;;;;3.50;1.20;;;;;;;25.94;80.22;100201.09;5974204;29;20051;-90